sensor_id;sensor_type;location;lat;lon;timestamp;P1;durP1;ratioP1;P2;durP2;ratioP2
72325;SDS011;60278;47.980;18.780;2022-09-16T00:00:30;5.80;;;3.10;;
72325;SDS011;60278;47.980;18.780;2022-09-16T00:04:02;4.80;;;3.07;;
72325;SDS011;60278;47.980;18.780;2022-09-16T00:07:33;5.13;;;3.30;;
72325;SDS011;60278;47.980;18.780;2022-09-16T00:11:04;5.65;;;3.25;;
72325;SDS011;60278;47.980;18.780;2022-09-16T00:14:35;6.40;;;3.60;;
72325;SDS011;60278;47.980;18.780;2022-09-16T00:18:06;11.95;;;4.20;;
72325;SDS011;60278;47.980;18.780;2022-09-16T00:21:37;7.93;;;4.00;;
72325;SDS011;60278;47.980;18.780;2022-09-16T00:25:08;8.67;;;4.30;;
72325;SDS011;60278;47.980;18.780;2022-09-16T00:28:39;6.57;;;3.58;;
72325;SDS011;60278;47.980;18.780;2022-09-16T00:32:11;6.40;;;3.83;;
72325;SDS011;60278;47.980;18.780;2022-09-16T00:35:42;7.63;;;4.35;;
72325;SDS011;60278;47.980;18.780;2022-09-16T00:39:13;7.90;;;4.27;;
72325;SDS011;60278;47.980;18.780;2022-09-16T00:42:44;7.25;;;4.60;;
72325;SDS011;60278;47.980;18.780;2022-09-16T00:46:15;7.35;;;4.22;;
72325;SDS011;60278;47.980;18.780;2022-09-16T00:49:50;9.67;;;3.87;;
72325;SDS011;60278;47.980;18.780;2022-09-16T00:53:25;11.23;;;4.28;;
72325;SDS011;60278;47.980;18.780;2022-09-16T00:56:58;6.60;;;4.15;;
72325;SDS011;60278;47.980;18.780;2022-09-16T01:00:30;6.97;;;4.27;;
72325;SDS011;60278;47.980;18.780;2022-09-16T01:04:03;6.47;;;3.95;;
72325;SDS011;60278;47.980;18.780;2022-09-16T01:07:43;8.05;;;3.78;;
72325;SDS011;60278;47.980;18.780;2022-09-16T01:11:16;9.05;;;4.43;;
72325;SDS011;60278;47.980;18.780;2022-09-16T01:14:47;7.27;;;4.27;;
72325;SDS011;60278;47.980;18.780;2022-09-16T01:26:04;7.07;;;3.97;;
72325;SDS011;60278;47.980;18.780;2022-09-16T01:41:41;7.00;;;4.07;;
72325;SDS011;60278;47.980;18.780;2022-09-16T01:45:18;7.43;;;3.83;;
72325;SDS011;60278;47.980;18.780;2022-09-16T01:49:12;9.63;;;4.78;;
72325;SDS011;60278;47.980;18.780;2022-09-16T01:53:02;8.83;;;4.87;;
72325;SDS011;60278;47.980;18.780;2022-09-16T02:00:43;9.82;;;5.15;;
72325;SDS011;60278;47.980;18.780;2022-09-16T02:04:17;11.37;;;5.30;;
72325;SDS011;60278;47.980;18.780;2022-09-16T02:07:55;10.20;;;5.55;;
72325;SDS011;60278;47.980;18.780;2022-09-16T02:11:30;9.85;;;5.07;;
72325;SDS011;60278;47.980;18.780;2022-09-16T02:15:04;9.10;;;5.33;;
72325;SDS011;60278;47.980;18.780;2022-09-16T02:18:40;9.20;;;5.10;;
72325;SDS011;60278;47.980;18.780;2022-09-16T02:22:17;9.50;;;5.00;;
72325;SDS011;60278;47.980;18.780;2022-09-16T02:25:55;9.57;;;5.85;;
72325;SDS011;60278;47.980;18.780;2022-09-16T02:29:28;7.43;;;4.73;;
72325;SDS011;60278;47.980;18.780;2022-09-16T02:33:15;9.30;;;5.35;;
72325;SDS011;60278;47.980;18.780;2022-09-16T02:36:51;9.38;;;5.20;;
72325;SDS011;60278;47.980;18.780;2022-09-16T02:40:28;9.07;;;5.00;;
72325;SDS011;60278;47.980;18.780;2022-09-16T02:44:07;13.45;;;6.38;;
72325;SDS011;60278;47.980;18.780;2022-09-16T02:47:44;9.40;;;5.55;;
72325;SDS011;60278;47.980;18.780;2022-09-16T02:51:37;13.10;;;5.13;;
72325;SDS011;60278;47.980;18.780;2022-09-16T02:59:09;9.60;;;5.55;;
72325;SDS011;60278;47.980;18.780;2022-09-16T03:02:42;13.55;;;6.22;;
72325;SDS011;60278;47.980;18.780;2022-09-16T03:06:15;14.57;;;6.10;;
72325;SDS011;60278;47.980;18.780;2022-09-16T03:09:51;13.73;;;6.50;;
72325;SDS011;60278;47.980;18.780;2022-09-16T03:13:34;10.10;;;6.00;;
72325;SDS011;60278;47.980;18.780;2022-09-16T03:20:59;10.25;;;5.65;;
72325;SDS011;60278;47.980;18.780;2022-09-16T03:35:51;10.02;;;6.47;;
72325;SDS011;60278;47.980;18.780;2022-09-16T03:39:28;14.02;;;6.30;;
72325;SDS011;60278;47.980;18.780;2022-09-16T03:43:08;12.60;;;7.20;;
72325;SDS011;60278;47.980;18.780;2022-09-16T03:46:40;13.02;;;8.20;;
72325;SDS011;60278;47.980;18.780;2022-09-16T03:50:11;12.95;;;7.38;;
72325;SDS011;60278;47.980;18.780;2022-09-16T03:53:43;11.17;;;6.30;;
72325;SDS011;60278;47.980;18.780;2022-09-16T03:57:14;10.40;;;5.88;;
72325;SDS011;60278;47.980;18.780;2022-09-16T04:00:48;11.85;;;6.82;;
72325;SDS011;60278;47.980;18.780;2022-09-16T04:04:23;10.83;;;6.30;;
72325;SDS011;60278;47.980;18.780;2022-09-16T04:07:54;11.02;;;6.03;;
72325;SDS011;60278;47.980;18.780;2022-09-16T04:11:25;13.55;;;7.43;;
72325;SDS011;60278;47.980;18.780;2022-09-16T04:14:59;15.30;;;6.78;;
72325;SDS011;60278;47.980;18.780;2022-09-16T04:18:30;12.77;;;7.40;;
72325;SDS011;60278;47.980;18.780;2022-09-16T04:22:02;12.07;;;7.15;;
72325;SDS011;60278;47.980;18.780;2022-09-16T04:25:33;12.02;;;6.65;;
72325;SDS011;60278;47.980;18.780;2022-09-16T04:29:04;10.53;;;6.10;;
72325;SDS011;60278;47.980;18.780;2022-09-16T04:32:35;12.10;;;6.28;;
72325;SDS011;60278;47.980;18.780;2022-09-16T04:36:08;11.60;;;6.75;;
72325;SDS011;60278;47.980;18.780;2022-09-16T04:39:44;14.70;;;7.67;;
72325;SDS011;60278;47.980;18.780;2022-09-16T04:43:16;13.52;;;7.72;;
72325;SDS011;60278;47.980;18.780;2022-09-16T04:46:47;15.10;;;8.65;;
72325;SDS011;60278;47.980;18.780;2022-09-16T04:50:18;14.57;;;7.53;;
72325;SDS011;60278;47.980;18.780;2022-09-16T04:53:49;12.77;;;7.10;;
72325;SDS011;60278;47.980;18.780;2022-09-16T04:57:20;9.70;;;6.03;;
72325;SDS011;60278;47.980;18.780;2022-09-16T05:00:51;9.93;;;6.05;;
72325;SDS011;60278;47.980;18.780;2022-09-16T05:04:22;11.77;;;5.40;;
72325;SDS011;60278;47.980;18.780;2022-09-16T05:07:53;13.43;;;7.47;;
72325;SDS011;60278;47.980;18.780;2022-09-16T05:11:25;9.93;;;5.90;;
72325;SDS011;60278;47.980;18.780;2022-09-16T05:14:58;11.33;;;5.33;;
72325;SDS011;60278;47.980;18.780;2022-09-16T05:18:29;10.65;;;5.40;;
72325;SDS011;60278;47.980;18.780;2022-09-16T05:22:00;10.50;;;5.25;;
72325;SDS011;60278;47.980;18.780;2022-09-16T05:25:36;10.40;;;5.00;;
72325;SDS011;60278;47.980;18.780;2022-09-16T05:29:13;10.93;;;5.60;;
72325;SDS011;60278;47.980;18.780;2022-09-16T05:32:45;10.77;;;5.43;;
72325;SDS011;60278;47.980;18.780;2022-09-16T05:36:16;9.43;;;5.10;;
72325;SDS011;60278;47.980;18.780;2022-09-16T05:39:49;9.27;;;4.50;;
72325;SDS011;60278;47.980;18.780;2022-09-16T05:43:20;7.65;;;5.28;;
72325;SDS011;60278;47.980;18.780;2022-09-16T05:46:51;9.38;;;5.82;;
72325;SDS011;60278;47.980;18.780;2022-09-16T05:50:22;9.40;;;5.80;;
72325;SDS011;60278;47.980;18.780;2022-09-16T05:53:53;10.93;;;5.50;;
72325;SDS011;60278;47.980;18.780;2022-09-16T05:57:25;10.32;;;5.80;;
72325;SDS011;60278;47.980;18.780;2022-09-16T06:00:59;9.27;;;5.63;;
72325;SDS011;60278;47.980;18.780;2022-09-16T06:04:31;11.63;;;6.10;;
72325;SDS011;60278;47.980;18.780;2022-09-16T06:08:02;12.65;;;5.80;;
72325;SDS011;60278;47.980;18.780;2022-09-16T06:11:37;11.43;;;5.90;;
72325;SDS011;60278;47.980;18.780;2022-09-16T06:15:10;13.47;;;6.00;;
72325;SDS011;60278;47.980;18.780;2022-09-16T06:18:41;10.38;;;5.78;;
72325;SDS011;60278;47.980;18.780;2022-09-16T06:22:12;8.55;;;4.53;;
72325;SDS011;60278;47.980;18.780;2022-09-16T06:25:43;8.33;;;4.73;;
72325;SDS011;60278;47.980;18.780;2022-09-16T06:29:14;12.93;;;4.97;;
72325;SDS011;60278;47.980;18.780;2022-09-16T06:32:46;11.23;;;5.72;;
72325;SDS011;60278;47.980;18.780;2022-09-16T06:36:18;8.38;;;4.60;;
72325;SDS011;60278;47.980;18.780;2022-09-16T06:39:51;9.47;;;5.87;;
72325;SDS011;60278;47.980;18.780;2022-09-16T06:43:22;11.85;;;6.25;;
72325;SDS011;60278;47.980;18.780;2022-09-16T06:46:53;8.07;;;5.40;;
72325;SDS011;60278;47.980;18.780;2022-09-16T06:50:24;8.73;;;4.87;;
72325;SDS011;60278;47.980;18.780;2022-09-16T06:54:00;10.73;;;5.85;;
72325;SDS011;60278;47.980;18.780;2022-09-16T06:57:33;9.63;;;5.40;;
72325;SDS011;60278;47.980;18.780;2022-09-16T07:01:04;8.87;;;4.63;;
72325;SDS011;60278;47.980;18.780;2022-09-16T07:04:36;8.30;;;5.53;;
72325;SDS011;60278;47.980;18.780;2022-09-16T07:08:07;9.15;;;5.70;;
72325;SDS011;60278;47.980;18.780;2022-09-16T07:11:38;8.43;;;5.30;;
72325;SDS011;60278;47.980;18.780;2022-09-16T07:15:10;11.33;;;5.60;;
72325;SDS011;60278;47.980;18.780;2022-09-16T07:18:41;7.50;;;5.18;;
72325;SDS011;60278;47.980;18.780;2022-09-16T07:22:12;10.38;;;6.05;;
72325;SDS011;60278;47.980;18.780;2022-09-16T07:25:43;9.53;;;6.17;;
72325;SDS011;60278;47.980;18.780;2022-09-16T07:29:16;9.57;;;4.88;;
72325;SDS011;60278;47.980;18.780;2022-09-16T07:32:48;8.68;;;4.93;;
72325;SDS011;60278;47.980;18.780;2022-09-16T07:36:21;10.43;;;5.00;;
72325;SDS011;60278;47.980;18.780;2022-09-16T07:39:54;8.10;;;4.38;;
72325;SDS011;60278;47.980;18.780;2022-09-16T07:43:25;9.55;;;4.43;;
72325;SDS011;60278;47.980;18.780;2022-09-16T07:46:57;12.40;;;4.93;;
72325;SDS011;60278;47.980;18.780;2022-09-16T07:50:28;10.37;;;5.37;;
72325;SDS011;60278;47.980;18.780;2022-09-16T07:54:00;9.00;;;4.80;;
72325;SDS011;60278;47.980;18.780;2022-09-16T07:57:36;7.18;;;4.28;;
72325;SDS011;60278;47.980;18.780;2022-09-16T08:01:07;7.63;;;4.10;;
72325;SDS011;60278;47.980;18.780;2022-09-16T08:04:38;7.22;;;4.20;;
72325;SDS011;60278;47.980;18.780;2022-09-16T08:08:10;9.30;;;4.20;;
72325;SDS011;60278;47.980;18.780;2022-09-16T08:11:41;6.60;;;3.97;;
72325;SDS011;60278;47.980;18.780;2022-09-16T08:15:12;11.93;;;4.32;;
72325;SDS011;60278;47.980;18.780;2022-09-16T08:18:43;6.30;;;3.92;;
72325;SDS011;60278;47.980;18.780;2022-09-16T08:22:15;7.70;;;4.30;;
72325;SDS011;60278;47.980;18.780;2022-09-16T08:25:46;8.60;;;4.43;;
72325;SDS011;60278;47.980;18.780;2022-09-16T08:29:25;5.88;;;3.60;;
72325;SDS011;60278;47.980;18.780;2022-09-16T08:32:57;4.95;;;3.42;;
72325;SDS011;60278;47.980;18.780;2022-09-16T08:36:29;6.10;;;3.27;;
72325;SDS011;60278;47.980;18.780;2022-09-16T08:40:00;7.45;;;4.32;;
72325;SDS011;60278;47.980;18.780;2022-09-16T08:51:32;5.82;;;2.95;;
72325;SDS011;60278;47.980;18.780;2022-09-16T08:55:09;6.10;;;2.33;;
72325;SDS011;60278;47.980;18.780;2022-09-16T08:58:48;5.60;;;2.53;;
72325;SDS011;60278;47.980;18.780;2022-09-16T09:02:36;6.43;;;3.00;;
72325;SDS011;60278;47.980;18.780;2022-09-16T09:06:13;8.70;;;3.10;;
72325;SDS011;60278;47.980;18.780;2022-09-16T09:18:16;5.60;;;3.00;;
72325;SDS011;60278;47.980;18.780;2022-09-16T09:25:57;5.05;;;2.78;;
72325;SDS011;60278;47.980;18.780;2022-09-16T09:29:47;6.20;;;2.63;;
72325;SDS011;60278;47.980;18.780;2022-09-16T09:33:29;7.10;;;2.65;;
72325;SDS011;60278;47.980;18.780;2022-09-16T09:37:17;4.38;;;2.38;;
72325;SDS011;60278;47.980;18.780;2022-09-16T09:41:05;3.90;;;2.20;;
72325;SDS011;60278;47.980;18.780;2022-09-16T09:44:45;6.95;;;2.60;;
72325;SDS011;60278;47.980;18.780;2022-09-16T09:48:24;4.70;;;2.08;;
72325;SDS011;60278;47.980;18.780;2022-09-16T09:52:12;4.32;;;2.13;;
72325;SDS011;60278;47.980;18.780;2022-09-16T09:55:47;7.77;;;2.07;;
72325;SDS011;60278;47.980;18.780;2022-09-16T09:59:40;3.58;;;1.83;;
72325;SDS011;60278;47.980;18.780;2022-09-16T10:03:18;6.45;;;2.08;;
72325;SDS011;60278;47.980;18.780;2022-09-16T10:06:49;7.20;;;2.20;;
72325;SDS011;60278;47.980;18.780;2022-09-16T10:10:24;4.80;;;2.20;;
72325;SDS011;60278;47.980;18.780;2022-09-16T10:13:58;5.05;;;1.92;;
72325;SDS011;60278;47.980;18.780;2022-09-16T10:17:31;3.87;;;1.83;;
72325;SDS011;60278;47.980;18.780;2022-09-16T10:21:09;5.50;;;2.13;;
72325;SDS011;60278;47.980;18.780;2022-09-16T10:24:51;5.85;;;1.98;;
72325;SDS011;60278;47.980;18.780;2022-09-16T10:28:36;5.88;;;2.05;;
72325;SDS011;60278;47.980;18.780;2022-09-16T10:32:08;4.83;;;1.77;;
72325;SDS011;60278;47.980;18.780;2022-09-16T10:35:56;5.15;;;2.42;;
72325;SDS011;60278;47.980;18.780;2022-09-16T10:39:30;5.28;;;1.80;;
72325;SDS011;60278;47.980;18.780;2022-09-16T10:43:03;3.90;;;1.70;;
72325;SDS011;60278;47.980;18.780;2022-09-16T10:46:37;3.40;;;1.50;;
72325;SDS011;60278;47.980;18.780;2022-09-16T10:50:19;4.13;;;1.60;;
72325;SDS011;60278;47.980;18.780;2022-09-16T10:53:51;4.57;;;1.90;;
72325;SDS011;60278;47.980;18.780;2022-09-16T11:01:07;2.85;;;1.45;;
72325;SDS011;60278;47.980;18.780;2022-09-16T11:08:56;3.97;;;1.37;;
72325;SDS011;60278;47.980;18.780;2022-09-16T11:21:28;3.42;;;1.50;;
72325;SDS011;60278;47.980;18.780;2022-09-16T11:29:08;8.07;;;1.50;;
72325;SDS011;60278;47.980;18.780;2022-09-16T11:40:46;3.13;;;1.20;;
72325;SDS011;60278;47.980;18.780;2022-09-16T11:56:18;3.90;;;1.50;;
72325;SDS011;60278;47.980;18.780;2022-09-16T11:59:57;4.82;;;1.98;;
72325;SDS011;60278;47.980;18.780;2022-09-16T12:04:01;4.85;;;1.50;;
72325;SDS011;60278;47.980;18.780;2022-09-16T12:07:38;3.70;;;1.60;;
72325;SDS011;60278;47.980;18.780;2022-09-16T12:15:09;4.55;;;1.45;;
72325;SDS011;60278;47.980;18.780;2022-09-16T12:18:51;4.20;;;1.40;;
72325;SDS011;60278;47.980;18.780;2022-09-16T12:26:25;3.97;;;1.70;;
72325;SDS011;60278;47.980;18.780;2022-09-16T12:30:30;4.10;;;1.70;;
72325;SDS011;60278;47.980;18.780;2022-09-16T12:34:09;3.60;;;1.40;;
72325;SDS011;60278;47.980;18.780;2022-09-16T12:37:49;3.60;;;1.33;;
72325;SDS011;60278;47.980;18.780;2022-09-16T12:45:24;4.13;;;1.80;;
72325;SDS011;60278;47.980;18.780;2022-09-16T13:04:51;3.37;;;1.50;;
72325;SDS011;60278;47.980;18.780;2022-09-16T13:08:26;3.67;;;2.00;;
72325;SDS011;60278;47.980;18.780;2022-09-16T13:12:16;2.80;;;1.40;;
72325;SDS011;60278;47.980;18.780;2022-09-16T13:15:55;4.03;;;1.93;;
72325;SDS011;60278;47.980;18.780;2022-09-16T13:23:22;3.08;;;1.70;;
72325;SDS011;60278;47.980;18.780;2022-09-16T13:26:57;6.93;;;1.98;;
72325;SDS011;60278;47.980;18.780;2022-09-16T13:30:35;4.30;;;1.67;;
72325;SDS011;60278;47.980;18.780;2022-09-16T13:34:14;4.63;;;1.70;;
72325;SDS011;60278;47.980;18.780;2022-09-16T13:37:47;3.63;;;1.60;;
72325;SDS011;60278;47.980;18.780;2022-09-16T13:45:00;3.43;;;1.50;;
72325;SDS011;60278;47.980;18.780;2022-09-16T13:48:41;4.63;;;2.20;;
72325;SDS011;60278;47.980;18.780;2022-09-16T13:52:19;3.67;;;2.00;;
72325;SDS011;60278;47.980;18.780;2022-09-16T13:56:20;5.80;;;2.10;;
72325;SDS011;60278;47.980;18.780;2022-09-16T14:03:45;5.15;;;2.33;;
72325;SDS011;60278;47.980;18.780;2022-09-16T14:07:41;4.88;;;1.98;;
72325;SDS011;60278;47.980;18.780;2022-09-16T14:15:18;3.38;;;1.67;;
72325;SDS011;60278;47.980;18.780;2022-09-16T14:18:53;5.32;;;2.13;;
72325;SDS011;60278;47.980;18.780;2022-09-16T14:22:29;5.30;;;2.05;;
72325;SDS011;60278;47.980;18.780;2022-09-16T14:26:11;4.10;;;1.77;;
72325;SDS011;60278;47.980;18.780;2022-09-16T14:29:54;4.93;;;2.10;;
72325;SDS011;60278;47.980;18.780;2022-09-16T14:33:31;3.55;;;1.70;;
72325;SDS011;60278;47.980;18.780;2022-09-16T14:37:03;3.07;;;1.57;;
72325;SDS011;60278;47.980;18.780;2022-09-16T14:40:35;9.68;;;1.58;;
72325;SDS011;60278;47.980;18.780;2022-09-16T14:44:13;4.22;;;1.83;;
72325;SDS011;60278;47.980;18.780;2022-09-16T14:47:50;3.53;;;1.88;;
72325;SDS011;60278;47.980;18.780;2022-09-16T14:51:24;7.20;;;2.43;;
72325;SDS011;60278;47.980;18.780;2022-09-16T14:54:57;3.58;;;1.77;;
72325;SDS011;60278;47.980;18.780;2022-09-16T14:58:29;5.50;;;1.92;;
72325;SDS011;60278;47.980;18.780;2022-09-16T15:02:45;6.70;;;2.23;;
72325;SDS011;60278;47.980;18.780;2022-09-16T15:06:13;4.57;;;2.10;;
72325;SDS011;60278;47.980;18.780;2022-09-16T15:13:34;4.67;;;1.90;;
72325;SDS011;60278;47.980;18.780;2022-09-16T15:17:07;8.23;;;1.92;;
72325;SDS011;60278;47.980;18.780;2022-09-16T15:20:38;4.20;;;1.90;;
72325;SDS011;60278;47.980;18.780;2022-09-16T15:24:19;3.85;;;2.03;;
72325;SDS011;60278;47.980;18.780;2022-09-16T15:28:01;8.27;;;2.50;;
72325;SDS011;60278;47.980;18.780;2022-09-16T15:31:53;4.50;;;1.60;;
72325;SDS011;60278;47.980;18.780;2022-09-16T15:35:25;3.75;;;1.70;;
72325;SDS011;60278;47.980;18.780;2022-09-16T15:38:57;6.47;;;1.90;;
72325;SDS011;60278;47.980;18.780;2022-09-16T15:42:28;3.63;;;1.58;;
72325;SDS011;60278;47.980;18.780;2022-09-16T15:46:00;3.55;;;1.70;;
72325;SDS011;60278;47.980;18.780;2022-09-16T15:49:33;3.65;;;1.50;;
72325;SDS011;60278;47.980;18.780;2022-09-16T15:57:00;7.70;;;2.30;;
72325;SDS011;60278;47.980;18.780;2022-09-16T16:00:57;3.60;;;1.60;;
72325;SDS011;60278;47.980;18.780;2022-09-16T16:04:31;3.17;;;1.50;;
72325;SDS011;60278;47.980;18.780;2022-09-16T16:08:03;5.10;;;2.10;;
72325;SDS011;60278;47.980;18.780;2022-09-16T16:11:35;4.13;;;2.15;;
72325;SDS011;60278;47.980;18.780;2022-09-16T16:15:06;4.83;;;2.13;;
72325;SDS011;60278;47.980;18.780;2022-09-16T16:18:38;5.13;;;2.10;;
72325;SDS011;60278;47.980;18.780;2022-09-16T16:22:09;6.05;;;1.80;;
72325;SDS011;60278;47.980;18.780;2022-09-16T16:25:41;3.65;;;2.15;;
72325;SDS011;60278;47.980;18.780;2022-09-16T16:29:12;5.00;;;2.10;;
72325;SDS011;60278;47.980;18.780;2022-09-16T16:32:43;6.20;;;2.00;;
72325;SDS011;60278;47.980;18.780;2022-09-16T16:36:16;4.22;;;2.05;;
72325;SDS011;60278;47.980;18.780;2022-09-16T16:39:48;5.93;;;1.80;;
72325;SDS011;60278;47.980;18.780;2022-09-16T16:43:19;4.00;;;1.85;;
72325;SDS011;60278;47.980;18.780;2022-09-16T16:46:51;3.75;;;1.70;;
72325;SDS011;60278;47.980;18.780;2022-09-16T16:50:23;4.47;;;2.17;;
72325;SDS011;60278;47.980;18.780;2022-09-16T16:53:54;6.10;;;1.90;;
72325;SDS011;60278;47.980;18.780;2022-09-16T16:57:26;4.10;;;2.13;;
72325;SDS011;60278;47.980;18.780;2022-09-16T17:01:07;5.05;;;2.58;;
72325;SDS011;60278;47.980;18.780;2022-09-16T17:04:42;5.93;;;2.10;;
72325;SDS011;60278;47.980;18.780;2022-09-16T17:08:13;4.68;;;2.47;;
72325;SDS011;60278;47.980;18.780;2022-09-16T17:11:51;5.78;;;3.72;;
72325;SDS011;60278;47.980;18.780;2022-09-16T17:15:24;5.17;;;2.90;;
72325;SDS011;60278;47.980;18.780;2022-09-16T17:18:57;4.95;;;2.90;;
72325;SDS011;60278;47.980;18.780;2022-09-16T17:22:29;7.75;;;3.15;;
72325;SDS011;60278;47.980;18.780;2022-09-16T17:26:00;6.88;;;3.22;;
72325;SDS011;60278;47.980;18.780;2022-09-16T17:29:32;6.23;;;3.13;;
72325;SDS011;60278;47.980;18.780;2022-09-16T17:33:03;6.80;;;2.92;;
72325;SDS011;60278;47.980;18.780;2022-09-16T17:36:35;7.72;;;2.90;;
72325;SDS011;60278;47.980;18.780;2022-09-16T17:40:08;5.43;;;2.40;;
72325;SDS011;60278;47.980;18.780;2022-09-16T17:43:40;7.15;;;2.60;;
72325;SDS011;60278;47.980;18.780;2022-09-16T17:47:12;7.93;;;2.95;;
72325;SDS011;60278;47.980;18.780;2022-09-16T17:50:43;6.13;;;2.60;;
72325;SDS011;60278;47.980;18.780;2022-09-16T17:54:14;8.00;;;2.70;;
72325;SDS011;60278;47.980;18.780;2022-09-16T17:57:45;5.63;;;2.83;;
72325;SDS011;60278;47.980;18.780;2022-09-16T18:01:17;6.97;;;2.60;;
72325;SDS011;60278;47.980;18.780;2022-09-16T18:04:50;4.70;;;2.87;;
72325;SDS011;60278;47.980;18.780;2022-09-16T18:08:21;5.63;;;2.40;;
72325;SDS011;60278;47.980;18.780;2022-09-16T18:11:52;6.30;;;2.67;;
72325;SDS011;60278;47.980;18.780;2022-09-16T18:15:24;7.63;;;2.50;;
72325;SDS011;60278;47.980;18.780;2022-09-16T18:18:56;4.65;;;2.58;;
72325;SDS011;60278;47.980;18.780;2022-09-16T18:22:28;4.85;;;2.55;;
72325;SDS011;60278;47.980;18.780;2022-09-16T18:26:17;4.50;;;2.70;;
72325;SDS011;60278;47.980;18.780;2022-09-16T18:29:48;4.22;;;2.20;;
72325;SDS011;60278;47.980;18.780;2022-09-16T18:33:19;6.30;;;2.53;;
72325;SDS011;60278;47.980;18.780;2022-09-16T18:36:50;6.32;;;2.72;;
72325;SDS011;60278;47.980;18.780;2022-09-16T18:40:21;5.07;;;2.90;;
72325;SDS011;60278;47.980;18.780;2022-09-16T18:43:57;14.63;;;3.00;;
72325;SDS011;60278;47.980;18.780;2022-09-16T18:47:33;4.97;;;2.90;;
72325;SDS011;60278;47.980;18.780;2022-09-16T18:51:04;5.10;;;2.60;;
72325;SDS011;60278;47.980;18.780;2022-09-16T18:54:35;5.10;;;2.92;;
72325;SDS011;60278;47.980;18.780;2022-09-16T18:58:06;6.03;;;3.08;;
72325;SDS011;60278;47.980;18.780;2022-09-16T19:01:37;7.13;;;3.20;;
72325;SDS011;60278;47.980;18.780;2022-09-16T19:05:09;4.95;;;2.60;;
72325;SDS011;60278;47.980;18.780;2022-09-16T19:08:40;4.55;;;2.60;;
72325;SDS011;60278;47.980;18.780;2022-09-16T19:12:12;4.50;;;2.33;;
72325;SDS011;60278;47.980;18.780;2022-09-16T19:15:43;6.57;;;2.77;;
72325;SDS011;60278;47.980;18.780;2022-09-16T19:19:14;7.85;;;3.50;;
72325;SDS011;60278;47.980;18.780;2022-09-16T19:22:45;6.43;;;3.30;;
72325;SDS011;60278;47.980;18.780;2022-09-16T19:26:16;4.40;;;2.50;;
72325;SDS011;60278;47.980;18.780;2022-09-16T19:29:47;6.15;;;3.05;;
72325;SDS011;60278;47.980;18.780;2022-09-16T19:33:19;5.35;;;2.67;;
72325;SDS011;60278;47.980;18.780;2022-09-16T19:36:50;4.97;;;3.00;;
72325;SDS011;60278;47.980;18.780;2022-09-16T19:40:21;8.25;;;3.10;;
72325;SDS011;60278;47.980;18.780;2022-09-16T19:43:52;4.18;;;2.63;;
72325;SDS011;60278;47.980;18.780;2022-09-16T19:47:24;6.63;;;3.33;;
72325;SDS011;60278;47.980;18.780;2022-09-16T19:50:56;5.87;;;3.10;;
72325;SDS011;60278;47.980;18.780;2022-09-16T19:54:27;5.43;;;2.88;;
72325;SDS011;60278;47.980;18.780;2022-09-16T19:57:58;7.03;;;3.35;;
72325;SDS011;60278;47.980;18.780;2022-09-16T20:01:30;6.80;;;3.10;;
72325;SDS011;60278;47.980;18.780;2022-09-16T20:05:02;9.77;;;3.03;;
72325;SDS011;60278;47.980;18.780;2022-09-16T20:08:35;6.47;;;4.25;;
72325;SDS011;60278;47.980;18.780;2022-09-16T20:12:07;6.67;;;3.30;;
72325;SDS011;60278;47.980;18.780;2022-09-16T20:15:38;8.05;;;3.47;;
72325;SDS011;60278;47.980;18.780;2022-09-16T20:19:12;7.18;;;3.70;;
72325;SDS011;60278;47.980;18.780;2022-09-16T20:22:44;5.60;;;3.38;;
72325;SDS011;60278;47.980;18.780;2022-09-16T20:26:17;6.37;;;3.27;;
72325;SDS011;60278;47.980;18.780;2022-09-16T20:29:51;5.35;;;3.25;;
72325;SDS011;60278;47.980;18.780;2022-09-16T20:33:22;6.63;;;3.28;;
72325;SDS011;60278;47.980;18.780;2022-09-16T20:36:53;8.23;;;3.57;;
72325;SDS011;60278;47.980;18.780;2022-09-16T20:40:24;7.13;;;3.83;;
72325;SDS011;60278;47.980;18.780;2022-09-16T20:43:55;6.40;;;3.50;;
72325;SDS011;60278;47.980;18.780;2022-09-16T20:47:27;7.57;;;3.63;;
72325;SDS011;60278;47.980;18.780;2022-09-16T20:51:03;7.85;;;3.50;;
72325;SDS011;60278;47.980;18.780;2022-09-16T20:54:38;8.77;;;3.65;;
72325;SDS011;60278;47.980;18.780;2022-09-16T20:58:09;6.15;;;3.38;;
72325;SDS011;60278;47.980;18.780;2022-09-16T21:01:41;5.83;;;3.27;;
72325;SDS011;60278;47.980;18.780;2022-09-16T21:05:12;9.23;;;3.38;;
72325;SDS011;60278;47.980;18.780;2022-09-16T21:08:43;6.93;;;3.60;;
72325;SDS011;60278;47.980;18.780;2022-09-16T21:12:15;6.00;;;3.00;;
72325;SDS011;60278;47.980;18.780;2022-09-16T21:15:56;5.65;;;3.15;;
72325;SDS011;60278;47.980;18.780;2022-09-16T21:19:28;5.85;;;3.10;;
72325;SDS011;60278;47.980;18.780;2022-09-16T21:22:59;8.47;;;3.43;;
72325;SDS011;60278;47.980;18.780;2022-09-16T21:26:31;8.30;;;3.05;;
72325;SDS011;60278;47.980;18.780;2022-09-16T21:30:03;5.28;;;2.83;;
72325;SDS011;60278;47.980;18.780;2022-09-16T21:33:34;4.75;;;2.90;;
72325;SDS011;60278;47.980;18.780;2022-09-16T21:37:06;5.87;;;3.07;;
72325;SDS011;60278;47.980;18.780;2022-09-16T21:40:37;5.53;;;2.90;;
72325;SDS011;60278;47.980;18.780;2022-09-16T21:44:08;5.65;;;3.30;;
72325;SDS011;60278;47.980;18.780;2022-09-16T21:47:40;7.83;;;3.10;;
72325;SDS011;60278;47.980;18.780;2022-09-16T21:51:14;6.40;;;3.20;;
72325;SDS011;60278;47.980;18.780;2022-09-16T21:54:46;6.22;;;3.55;;
72325;SDS011;60278;47.980;18.780;2022-09-16T21:58:18;5.40;;;3.50;;
72325;SDS011;60278;47.980;18.780;2022-09-16T22:01:49;4.88;;;3.10;;
72325;SDS011;60278;47.980;18.780;2022-09-16T22:05:21;5.35;;;3.03;;
72325;SDS011;60278;47.980;18.780;2022-09-16T22:08:53;5.95;;;3.03;;
72325;SDS011;60278;47.980;18.780;2022-09-16T22:12:25;4.90;;;2.80;;
72325;SDS011;60278;47.980;18.780;2022-09-16T22:15:56;5.30;;;2.92;;
72325;SDS011;60278;47.980;18.780;2022-09-16T22:19:27;9.07;;;3.55;;
72325;SDS011;60278;47.980;18.780;2022-09-16T22:22:59;9.50;;;4.10;;
72325;SDS011;60278;47.980;18.780;2022-09-16T22:26:30;9.65;;;4.05;;
72325;SDS011;60278;47.980;18.780;2022-09-16T22:30:02;6.15;;;3.88;;
72325;SDS011;60278;47.980;18.780;2022-09-16T22:33:34;8.43;;;4.10;;
72325;SDS011;60278;47.980;18.780;2022-09-16T22:37:05;7.25;;;4.18;;
72325;SDS011;60278;47.980;18.780;2022-09-16T22:40:38;7.45;;;4.15;;
72325;SDS011;60278;47.980;18.780;2022-09-16T22:44:10;7.07;;;4.00;;
72325;SDS011;60278;47.980;18.780;2022-09-16T22:47:41;10.27;;;3.93;;
72325;SDS011;60278;47.980;18.780;2022-09-16T22:51:13;7.25;;;4.28;;
72325;SDS011;60278;47.980;18.780;2022-09-16T22:54:45;11.48;;;4.30;;
72325;SDS011;60278;47.980;18.780;2022-09-16T22:58:16;9.70;;;3.93;;
72325;SDS011;60278;47.980;18.780;2022-09-16T23:01:47;7.22;;;4.40;;
72325;SDS011;60278;47.980;18.780;2022-09-16T23:05:18;7.13;;;4.05;;
72325;SDS011;60278;47.980;18.780;2022-09-16T23:08:50;8.37;;;4.90;;
72325;SDS011;60278;47.980;18.780;2022-09-16T23:12:21;11.63;;;5.28;;
72325;SDS011;60278;47.980;18.780;2022-09-16T23:15:52;7.32;;;4.57;;
72325;SDS011;60278;47.980;18.780;2022-09-16T23:19:24;9.57;;;4.95;;
72325;SDS011;60278;47.980;18.780;2022-09-16T23:22:55;9.80;;;5.03;;
72325;SDS011;60278;47.980;18.780;2022-09-16T23:26:27;13.93;;;5.63;;
72325;SDS011;60278;47.980;18.780;2022-09-16T23:30:01;8.63;;;5.05;;
72325;SDS011;60278;47.980;18.780;2022-09-16T23:33:32;10.50;;;5.77;;
72325;SDS011;60278;47.980;18.780;2022-09-16T23:37:03;10.23;;;6.07;;
72325;SDS011;60278;47.980;18.780;2022-09-16T23:40:35;8.57;;;5.30;;